Time;durP1;ratioP1;P1;durP2;ratioP2;P2;SDS_P1;SDS_P2;PMS_P1;PMS_P2;Temp;Humidity;BMP_temperature;BMP_pressure;BME280_temperature;BME280_humidity;BME280_pressure;Samples;Min_cycle;Max_cycle;Signal;HPM_P1;HPM_P2
2022/05/02 00:00:25;;;;;;;7.77;5.47;;;;;;;13.38;70.11;94809.91;5029037;28;20213;-88
2022/05/02 00:02:53;;;;;;;9.40;5.23;;;;;;;13.50;70.98;94832.38;5027402;28;20218;-87
2022/05/02 00:05:21;;;;;;;6.70;5.67;;;;;;;13.47;70.99;94825.00;5031649;28;20237;-87
2022/05/02 00:07:51;;;;;;;5.97;5.37;;;;;;;13.45;71.14;94821.00;5039188;28;20217;-86
2022/05/02 00:10:18;;;;;;;6.93;5.90;;;;;;;13.54;71.17;94828.25;5026916;28;20313;-84
2022/05/02 00:12:45;;;;;;;7.20;6.13;;;;;;;13.42;71.53;94818.88;5036778;28;20203;-86
2022/05/02 00:15:13;;;;;;;7.83;6.53;;;;;;;13.30;72.07;94824.13;5030952;28;20209;-87
2022/05/02 00:17:58;;;;;;;10.50;7.13;;;;;;;13.36;72.09;94820.56;5033618;28;20278;-87
2022/05/02 00:20:28;;;;;;;10.43;6.80;;;;;;;13.39;72.34;94822.72;5038346;28;20285;-89
2022/05/02 00:22:56;;;;;;;9.77;6.77;;;;;;;13.35;72.22;94820.81;5040780;28;20672;-88
2022/05/02 00:25:24;;;;;;;10.33;7.73;;;;;;;13.18;72.46;94784.22;5031266;28;20741;-87
2022/05/02 00:27:52;;;;;;;8.33;7.43;;;;;;;13.37;72.87;94814.34;5027587;28;20230;-87
2022/05/02 00:30:19;;;;;;;11.27;7.37;;;;;;;13.24;72.70;94796.34;5034286;28;20238;-86
2022/05/02 00:32:46;;;;;;;11.03;7.13;;;;;;;13.31;73.03;94809.25;5027281;28;20655;-86
2022/05/02 00:35:14;;;;;;;10.23;7.00;;;;;;;12.97;73.43;94769.91;5041046;28;20245;-92
2022/05/02 00:37:44;;;;;;;7.80;6.63;;;;;;;13.26;73.46;94819.59;5036019;28;20209;-90
2022/05/02 00:40:13;;;;;;;7.97;6.20;;;;;;;13.17;73.49;94807.91;5034601;28;20217;-90
2022/05/02 00:42:42;;;;;;;7.93;6.67;;;;;;;13.23;73.15;94802.56;5035164;28;20219;-90
2022/05/02 00:45:11;;;;;;;7.13;5.90;;;;;;;13.13;72.96;94802.34;5036369;28;20199;-88
2022/05/02 00:47:38;;;;;;;8.37;6.30;;;;;;;13.09;73.51;94801.25;5032237;28;20382;-89
2022/05/02 00:50:07;;;;;;;8.60;6.07;;;;;;;13.12;73.59;94803.38;5032159;28;20685;-89
2022/05/02 00:52:35;;;;;;;8.70;6.97;;;;;;;13.06;74.15;94807.69;5035297;28;20285;-83
2022/05/02 00:55:05;;;;;;;6.83;5.80;;;;;;;13.18;73.74;94804.28;5028657;28;20210;-83
2022/05/02 00:57:33;;;;;;;7.77;6.10;;;;;;;13.23;73.15;94801.78;5029464;28;20657;-83
2022/05/02 01:00:00;;;;;;;7.80;5.97;;;;;;;13.31;72.24;94799.59;5029361;28;20213;-82
2022/05/02 01:02:38;;;;;;;12.43;5.93;;;;;;;13.26;72.29;94796.09;5026403;28;20207;-82
2022/05/02 01:05:05;;;;;;;9.37;6.10;;;;;;;13.31;72.45;94793.56;5034532;28;20197;-90
2022/05/02 01:07:31;;;;;;;9.33;6.40;;;;;;;13.14;73.10;94777.06;5039736;28;20683;-90
2022/05/02 01:10:27;;;;;;;8.83;6.00;;;;;;;13.16;72.76;94786.22;5041048;28;20231;-89
2022/05/02 01:12:54;;;;;;;7.37;5.43;;;;;;;13.13;72.40;94783.31;5042816;28;20210;-90
2022/05/02 01:15:21;;;;;;;6.13;5.27;;;;;;;13.17;72.45;94781.81;5034246;28;20210;-89
2022/05/02 01:17:48;;;;;;;10.83;5.67;;;;;;;13.23;72.59;94779.09;5045210;28;20206;-89
2022/05/02 01:20:16;;;;;;;8.47;5.77;;;;;;;13.15;72.72;94781.25;5032792;28;20195;-84
2022/05/02 01:22:43;;;;;;;5.93;5.00;;;;;;;13.14;72.58;94772.63;5044837;28;20210;-85
2022/05/02 01:25:11;;;;;;;6.60;5.10;;;;;;;13.17;72.59;94776.59;5043626;28;20241;-86
2022/05/02 01:27:38;;;;;;;6.87;5.77;;;;;;;13.10;72.69;94768.13;5037437;28;20210;-85
2022/05/02 01:30:09;;;;;;;7.30;5.23;;;;;;;13.13;72.58;94771.03;5030588;28;20225;-85
2022/05/02 01:32:43;;;;;;;6.70;5.03;;;;;;;13.02;72.89;94767.41;5036830;28;20186;-85
2022/05/02 01:35:11;;;;;;;8.43;4.90;;;;;;;13.05;73.04;94773.97;5033092;28;20228;-86
2022/05/02 01:37:48;;;;;;;7.77;5.50;;;;;;;13.03;73.33;94771.59;5037024;28;21057;-88
2022/05/02 01:40:17;;;;;;;6.97;5.47;;;;;;;13.02;73.25;94764.00;5033722;28;20242;-88
2022/05/02 01:42:57;;;;;;;8.53;5.50;;;;;;;13.04;73.49;94762.75;5029650;28;20217;-85
2022/05/02 01:45:24;;;;;;;6.67;5.37;;;;;;;13.07;72.66;94754.47;5028853;28;20666;-86
2022/05/02 01:47:51;;;;;;;8.23;5.70;;;;;;;12.99;72.67;94740.97;5030872;28;20569;-86
2022/05/02 01:50:18;;;;;;;8.03;5.17;;;;;;;13.03;72.76;94742.91;5038858;28;20222;-86
2022/05/02 01:52:52;;;;;;;7.87;5.33;;;;;;;12.92;72.84;94727.28;5030590;28;20229;-87
2022/05/02 01:55:19;;;;;;;6.57;4.87;;;;;;;13.00;73.33;94753.81;5030747;28;20673;-90
2022/05/02 01:57:48;;;;;;;7.17;5.37;;;;;;;12.98;73.36;94749.84;5032628;28;20287;-90
2022/05/02 02:00:15;;;;;;;8.20;5.20;;;;;;;12.99;73.58;94752.22;5031099;28;20229;-87
2022/05/02 02:02:42;;;;;;;7.17;5.37;;;;;;;13.05;73.36;94750.50;5033661;28;20210;-88
2022/05/02 02:07:55;;;;;;;7.20;5.27;;;;;;;12.93;74.20;94747.91;5034617;28;20194;-87
2022/05/02 02:10:22;;;;;;;7.53;5.40;;;;;;;12.85;74.24;94735.22;5034818;28;20298;-87
2022/05/02 02:13:32;;;;;;;7.73;5.33;;;;;;;12.91;74.34;94743.94;5033615;28;20210;-89
2022/05/02 02:16:00;;;;;;;9.03;5.63;;;;;;;12.87;74.20;94740.22;5032723;28;20204;-89
2022/05/02 02:18:27;;;;;;;9.67;6.17;;;;;;;12.76;74.92;94736.59;5048126;28;20266;-88
2022/05/02 02:20:55;;;;;;;9.33;5.30;;;;;;;12.82;74.78;94735.69;5031383;28;20191;-88
2022/05/02 02:23:24;;;;;;;8.33;5.67;;;;;;;12.75;74.84;94716.78;5034844;28;20289;-89
2022/05/02 02:25:54;;;;;;;8.47;5.87;;;;;;;12.81;75.12;94730.72;5026989;28;20257;-88
2022/05/02 02:28:21;;;;;;;9.33;6.07;;;;;;;12.66;75.61;94712.13;5032909;28;20285;-88
2022/05/02 02:30:50;;;;;;;8.20;6.20;;;;;;;12.82;75.43;94719.22;5030275;28;20701;-87
2022/05/02 02:33:28;;;;;;;7.30;5.80;;;;;;;12.81;75.15;94722.88;5033160;28;20274;-87
2022/05/02 02:35:55;;;;;;;9.40;6.07;;;;;;;12.72;75.61;94708.59;5034706;28;20709;-87
2022/05/02 02:38:25;;;;;;;8.40;6.83;;;;;;;12.56;76.64;94711.91;5033368;28;20629;-89
2022/05/02 02:40:52;;;;;;;12.77;6.60;;;;;;;12.55;76.44;94700.69;5029906;28;20218;-89
2022/05/02 02:43:19;;;;;;;7.50;6.33;;;;;;;12.62;76.65;94698.75;5025188;28;20199;-87
2022/05/02 02:45:46;;;;;;;9.70;7.23;;;;;;;12.66;76.17;94705.09;5026746;28;20670;-86
2022/05/02 02:48:19;;;;;;;10.50;6.67;;;;;;;12.51;77.37;94702.16;5031733;28;20198;-86
2022/05/02 02:50:46;;;;;;;10.10;6.90;;;;;;;12.44;77.61;94693.66;5033567;28;20214;-86
2022/05/02 02:53:13;;;;;;;11.07;6.77;;;;;;;12.42;77.80;94701.72;5028937;28;20194;-85
2022/05/02 02:56:05;;;;;;;9.93;6.47;;;;;;;12.43;78.00;94705.13;5034839;28;20589;-86
2022/05/02 02:58:32;;;;;;;8.60;6.87;;;;;;;12.37;78.30;94696.41;4963756;28;20205;-86
2022/05/02 03:00:59;;;;;;;11.50;7.43;;;;;;;12.28;78.48;94687.34;5029222;28;20191;-86
2022/05/02 03:03:26;;;;;;;9.60;7.70;;;;;;;12.21;78.99;94683.25;5032584;28;20200;-87
2022/05/02 03:06:22;;;;;;;12.37;7.53;;;;;;;12.22;79.30;94692.66;5032707;28;20209;-86
2022/05/02 03:08:49;;;;;;;11.20;7.90;;;;;;;12.32;78.64;94691.06;5033260;28;20206;-86
2022/05/02 03:11:18;;;;;;;10.80;7.67;;;;;;;12.21;79.20;94685.84;5035747;28;20240;-84
2022/05/02 03:13:47;;;;;;;8.70;7.03;;;;;;;12.32;78.94;94690.28;5029829;28;20579;-83
2022/05/02 03:16:14;;;;;;;9.70;6.50;;;;;;;12.25;79.07;94689.59;5035378;28;20203;-83
2022/05/02 03:18:41;;;;;;;10.33;7.23;;;;;;;12.27;78.74;94696.16;5031621;28;20195;-82
2022/05/02 03:21:08;;;;;;;8.93;6.93;;;;;;;12.23;79.08;94687.22;5027962;28;20207;-84
2022/05/02 03:23:35;;;;;;;9.33;6.40;;;;;;;12.24;79.13;94688.00;5028533;28;20838;-86
2022/05/02 03:26:02;;;;;;;13.97;6.63;;;;;;;12.05;79.82;94691.75;5026704;28;20213;-89
2022/05/02 03:28:30;;;;;;;12.30;7.07;;;;;;;12.05;80.24;94692.53;5035922;28;20260;-88
2022/05/02 03:31:15;;;;;;;8.63;6.40;;;;;;;12.11;79.90;94693.44;5034459;28;20224;-88
2022/05/02 03:33:42;;;;;;;7.53;6.30;;;;;;;12.09;79.82;94692.88;5033797;28;20775;-86
2022/05/02 03:36:10;;;;;;;13.57;6.87;;;;;;;12.00;80.12;94676.81;5036317;28;20312;-86
2022/05/02 03:38:38;;;;;;;11.27;7.43;;;;;;;12.10;79.79;94694.47;5034390;28;21607;-86
2022/05/02 03:41:05;;;;;;;10.07;6.70;;;;;;;11.86;81.26;94698.88;5033028;28;20546;-85
2022/05/02 03:43:36;;;;;;;7.90;6.07;;;;;;;11.88;80.74;94687.22;5032965;28;20697;-84
2022/05/02 03:46:03;;;;;;;11.17;6.87;;;;;;;11.83;80.90;94676.66;5028734;28;20215;-85
2022/05/02 03:48:30;;;;;;;10.13;6.53;;;;;;;11.89;81.16;94688.78;5028244;28;20207;-84
2022/05/02 03:50:57;;;;;;;10.70;7.07;;;;;;;11.84;81.35;94693.06;5031781;28;20231;-85
2022/05/02 03:53:24;;;;;;;9.73;6.43;;;;;;;11.72;81.82;94692.25;5028972;28;20615;-87
2022/05/02 03:59:22;;;;;;;11.57;6.50;;;;;;;11.84;81.01;94700.88;5004700;28;20213;-87
2022/05/02 04:01:49;;;;;;;8.53;6.33;;;;;;;11.81;81.11;94693.53;5029255;28;20202;-88
2022/05/02 04:04:15;;;;;;;13.70;6.70;;;;;;;11.82;80.88;94695.13;5037263;28;20206;-88
2022/05/02 04:06:43;;;;;;;9.60;6.63;;;;;;;11.83;81.17;94696.72;5041958;28;20208;-87
2022/05/02 04:09:09;;;;;;;8.70;6.63;;;;;;;11.89;80.79;94706.22;5037707;28;20205;-89
2022/05/02 04:11:36;;;;;;;9.80;6.60;;;;;;;11.96;80.19;94699.09;5027242;28;20218;-88
2022/05/02 04:14:04;;;;;;;10.00;6.93;;;;;;;12.02;79.75;94703.41;5034269;28;20588;-88
2022/05/02 04:16:34;;;;;;;13.57;7.47;;;;;;;12.06;79.62;94703.75;5033181;28;20194;-91
2022/05/02 04:19:01;;;;;;;10.97;7.43;;;;;;;12.05;78.92;94692.53;5030428;28;20293;-88
2022/05/02 04:21:28;;;;;;;10.67;7.20;;;;;;;12.09;79.38;94708.53;5031830;28;20668;-86
2022/05/02 04:23:55;;;;;;;10.37;8.63;;;;;;;12.05;79.12;94696.97;5027169;28;20238;-88
2022/05/02 04:26:22;;;;;;;11.60;7.47;;;;;;;11.85;80.07;94697.28;5032271;28;20213;-88
2022/05/02 04:28:49;;;;;;;10.33;7.30;;;;;;;11.86;79.93;94696.28;5030137;28;20230;-87
2022/05/02 04:31:17;;;;;;;16.07;7.60;;;;;;;11.93;79.62;94705.56;5038872;28;20221;-85
2022/05/02 04:33:45;;;;;;;11.60;7.27;;;;;;;12.04;79.01;94706.56;5040591;28;20198;-87
2022/05/02 04:36:12;;;;;;;8.83;6.50;;;;;;;12.09;78.50;94698.09;5030050;28;20199;-74
2022/05/02 04:38:39;;;;;;;9.27;6.93;;;;;;;12.13;78.32;94701.81;5023095;28;20681;-73
2022/05/02 04:41:06;;;;;;;11.90;6.70;;;;;;;12.03;78.37;94710.22;5021581;28;20206;-74
2022/05/02 04:43:33;;;;;;;10.07;6.80;;;;;;;12.06;77.99;94701.97;5013984;28;20207;-73
2022/05/02 04:46:00;;;;;;;14.13;6.90;;;;;;;12.06;77.90;94714.97;5018327;28;20250;-73
2022/05/02 04:48:27;;;;;;;11.87;6.87;;;;;;;12.13;77.43;94720.06;5032656;28;20692;-74
2022/05/02 04:50:56;;;;;;;12.87;6.07;;;;;;;12.06;77.44;94698.56;5027704;28;20250;-73
2022/05/02 04:53:23;;;;;;;9.07;6.47;;;;;;;12.10;77.65;94715.31;5033069;28;20199;-73
2022/05/02 04:55:50;;;;;;;9.23;6.77;;;;;;;12.19;77.38;94701.72;5033130;28;20205;-72
2022/05/02 04:58:17;;;;;;;12.40;6.40;;;;;;;12.26;76.99;94702.41;5020596;28;20674;-73
2022/05/02 05:00:44;;;;;;;12.03;6.30;;;;;;;12.22;76.40;94698.66;5022937;28;20242;-74
2022/05/02 05:03:11;;;;;;;11.53;6.63;;;;;;;12.09;77.25;94713.72;5023147;28;20191;-75
2022/05/02 05:05:38;;;;;;;16.93;6.83;;;;;;;12.19;77.07;94708.75;5025025;28;20202;-72
2022/05/02 05:08:07;;;;;;;7.90;6.50;;;;;;;12.13;77.35;94705.22;5022060;28;20225;-72
2022/05/02 05:10:43;;;;;;;12.43;7.27;;;;;;;12.12;76.94;94703.63;5023473;28;20530;-73
2022/05/02 05:13:17;;;;;;;9.67;6.67;;;;;;;12.10;77.15;94697.06;5025874;28;20190;-73
2022/05/02 05:16:20;;;;;;;10.47;6.77;;;;;;;12.15;77.40;94692.75;5022847;28;20211;-75
2022/05/02 05:19:02;;;;;;;10.93;6.97;;;;;;;12.20;76.17;94692.91;4992996;28;20198;-72
2022/05/02 05:21:41;;;;;;;9.00;7.27;;;;;;;12.17;76.37;94690.75;5022039;28;20195;-74
2022/05/02 05:24:43;;;;;;;9.97;6.97;;;;;;;12.20;75.58;94689.50;5021680;28;20226;-74
2022/05/02 05:27:23;;;;;;;13.37;7.07;;;;;;;12.28;76.33;94684.72;5023415;28;20645;-73
2022/05/02 05:29:58;;;;;;;10.93;7.27;;;;;;;12.34;74.92;94689.03;5021687;28;20698;-73
2022/05/02 05:32:30;;;;;;;10.90;7.80;;;;;;;12.29;75.31;94683.72;5021788;28;20226;-73
2022/05/02 05:35:07;;;;;;;13.93;7.83;;;;;;;12.35;75.31;94700.25;5023741;28;20203;-73
2022/05/02 05:38:00;;;;;;;15.07;7.73;;;;;;;12.36;74.95;94686.19;5019248;28;20198;-75
2022/05/02 05:40:38;;;;;;;11.40;7.83;;;;;;;12.45;74.70;94703.06;5020263;28;20196;-75
2022/05/02 05:43:38;;;;;;;14.33;7.77;;;;;;;12.45;74.74;94695.25;5025846;28;20200;-75
2022/05/02 05:46:28;;;;;;;13.20;7.70;;;;;;;12.28;75.42;94689.94;5020249;28;20203;-73
2022/05/02 05:49:08;;;;;;;11.97;7.30;;;;;;;12.30;75.40;94682.69;5022540;28;20231;-75
2022/05/02 05:51:37;;;;;;;14.53;6.93;;;;;;;12.45;75.12;94693.44;5022251;28;20226;-73
2022/05/02 05:54:22;;;;;;;14.23;7.27;;;;;;;12.59;74.66;94686.16;5022070;28;20199;-74
2022/05/02 05:57:00;;;;;;;9.70;7.33;;;;;;;12.56;73.86;94693.66;5022251;28;20191;-73
2022/05/02 05:59:37;;;;;;;11.23;7.43;;;;;;;12.58;74.60;94689.03;5025060;28;20199;-74
2022/05/02 06:02:18;;;;;;;8.97;6.50;;;;;;;12.57;74.23;94695.25;5021952;28;20931;-75
2022/05/02 06:04:49;;;;;;;11.77;6.83;;;;;;;12.56;74.71;94676.19;5021851;28;20206;-74
2022/05/02 06:07:18;;;;;;;11.93;6.40;;;;;;;12.52;75.08;94682.91;5021435;28;20200;-75
2022/05/02 06:09:46;;;;;;;13.50;6.77;;;;;;;12.42;75.21;94667.03;5022029;28;20221;-73
2022/05/02 06:12:14;;;;;;;16.10;7.00;;;;;;;12.52;75.80;94677.69;5021381;28;20231;-75
2022/05/02 06:20:12;;;;;;;14.20;7.13;;;;;;;12.76;74.01;94676.63;5018608;28;20214;-74
2022/05/02 06:22:41;;;;;;;10.20;6.70;;;;;;;12.84;73.70;94678.84;5020769;28;20198;-74
2022/05/02 06:25:09;;;;;;;8.80;6.40;;;;;;;12.85;73.29;94683.06;5020658;28;20698;-75
2022/05/02 06:27:42;;;;;;;13.63;6.40;;;;;;;12.88;73.55;94682.59;5022025;28;20199;-73
2022/05/02 06:30:11;;;;;;;9.53;6.10;;;;;;;12.89;72.89;94660.72;5022939;28;20191;-73
2022/05/02 06:32:38;;;;;;;10.33;6.27;;;;;;;12.99;72.84;94670.53;5022380;28;20222;-73
2022/05/02 06:35:06;;;;;;;15.17;6.50;;;;;;;12.97;72.89;94668.19;5022545;28;20275;-74
2022/05/02 06:37:40;;;;;;;14.57;6.30;;;;;;;13.06;72.13;94663.38;5022126;28;20206;-73
2022/05/02 06:40:19;;;;;;;10.20;6.00;;;;;;;13.16;71.47;94674.03;5021025;28;20194;-73
2022/05/02 06:42:57;;;;;;;13.80;6.27;;;;;;;13.19;70.95;94664.97;5018639;28;20190;-74
2022/05/02 06:45:31;;;;;;;12.97;6.30;;;;;;;13.08;71.84;94667.38;5020758;28;20622;-73
2022/05/02 06:48:24;;;;;;;9.03;6.00;;;;;;;13.15;71.23;94653.38;5022192;28;20213;-75
2022/05/02 06:50:57;;;;;;;13.93;7.53;;;;;;;13.32;70.66;94651.59;5019991;28;20191;-73
2022/05/02 06:53:51;;;;;;;18.10;10.23;;;;;;;13.37;70.78;94652.50;5021288;28;20253;-74
2022/05/02 06:56:28;;;;;;;18.13;8.60;;;;;;;13.33;70.63;94650.59;5015889;28;20905;-73
2022/05/02 06:59:04;;;;;;;9.80;8.33;;;;;;;13.48;70.30;94646.41;5024265;28;20631;-74
2022/05/02 07:01:45;;;;;;;17.47;8.33;;;;;;;13.57;69.80;94641.59;5019851;28;20268;-75
2022/05/02 07:04:35;;;;;;;12.27;8.27;;;;;;;13.77;73.71;94638.50;5021070;28;20282;-88
2022/05/02 07:07:11;;;;;;;19.50;8.20;;;;;;;13.93;72.19;94641.13;5025939;28;20214;-87
2022/05/02 07:09:44;;;;;;;11.30;7.90;;;;;;;14.09;70.57;94644.75;5013457;28;20191;-87
2022/05/02 07:12:18;;;;;;;15.57;8.50;;;;;;;14.22;67.56;94633.97;5024739;28;20701;-87
2022/05/02 07:15:05;;;;;;;14.80;9.20;;;;;;;14.28;67.66;94635.63;5030223;28;20680;-87
2022/05/02 07:18:04;;;;;;;15.03;9.50;;;;;;;14.29;65.00;94649.47;5023723;28;20229;-82
2022/05/02 07:20:43;;;;;;;12.57;9.83;;;;;;;14.35;66.75;94638.88;5018765;28;20233;-87
2022/05/02 07:23:35;;;;;;;;;;;;;;;;;;;;;
2022/05/02 07:26:07;;;;;;;14.63;10.10;;;;;;;14.25;64.38;94641.34;5017316;28;20195;-84
2022/05/02 07:28:37;;;;;;;13.27;9.37;;;;;;;14.26;65.12;94619.38;5026473;28;20206;-83
2022/05/02 07:31:07;;;;;;;14.30;9.53;;;;;;;14.31;64.24;94621.28;5016170;28;20564;-82
2022/05/02 07:33:37;;;;;;;13.37;9.13;;;;;;;14.44;63.37;94632.22;5027052;28;20184;-86
2022/05/02 07:36:05;;;;;;;13.37;9.77;;;;;;;14.47;65.14;94631.72;5021160;28;20191;-82
2022/05/02 07:38:34;;;;;;;17.90;10.03;;;;;;;14.62;67.13;94629.31;5022448;28;20234;-85
2022/05/02 07:43:49;;;;;;;15.53;7.97;;;;;;;14.97;63.50;94626.31;5019847;28;20195;-82
2022/05/02 07:46:21;;;;;;;16.00;7.53;;;;;;;15.19;64.96;94632.28;5022339;28;20203;-71
2022/05/02 07:48:50;;;;;;;22.20;7.13;;;;;;;15.30;62.59;94635.78;5019193;28;20230;-72
2022/05/02 07:51:17;;;;;;;8.67;6.10;;;;;;;15.43;59.92;94637.25;5018946;28;20278;-73
2022/05/02 07:53:45;;;;;;;9.03;6.20;;;;;;;15.48;60.62;94639.94;5020625;28;20307;-72
2022/05/02 07:56:14;;;;;;;12.70;5.87;;;;;;;15.65;60.59;94643.22;5024750;28;20249;-71
2022/05/02 07:58:42;;;;;;;10.00;6.03;;;;;;;15.77;59.14;94655.13;5020583;28;20191;-70
2022/05/02 08:01:09;;;;;;;9.10;5.80;;;;;;;15.81;57.70;94645.72;5016967;28;20230;-70
2022/05/02 08:03:37;;;;;;;11.60;7.40;;;;;;;15.97;60.06;94644.00;5017993;28;20190;-71
2022/05/02 08:06:16;;;;;;;10.50;6.00;;;;;;;16.08;56.71;94647.50;5015740;28;20207;-70
2022/05/02 08:08:52;;;;;;;8.80;6.60;;;;;;;16.19;56.42;94649.94;5018908;28;20220;-69
2022/05/02 08:11:27;;;;;;;7.97;6.37;;;;;;;16.16;56.86;94657.53;5022511;28;20203;-78
2022/05/02 08:14:08;;;;;;;13.47;6.97;;;;;;;16.16;55.77;94652.28;5024140;28;20762;-84
2022/05/02 08:16:41;;;;;;;9.10;7.30;;;;;;;16.26;54.64;94657.59;5021840;28;20197;-84
2022/05/02 08:19:35;;;;;;;9.40;6.63;;;;;;;16.26;54.23;94650.50;5020262;28;20195;-77
2022/05/02 08:28:03;;;;;;;12.80;7.60;;;;;;;16.20;53.76;94653.34;4964289;28;20242;-82
2022/05/02 08:30:39;;;;;;;11.57;8.23;;;;;;;16.34;54.03;94647.41;5006415;28;20230;-82
2022/05/02 08:33:07;;;;;;;10.43;7.60;;;;;;;16.48;53.15;94650.38;5026079;28;20221;-73
2022/05/02 08:35:50;;;;;;;9.83;7.60;;;;;;;16.56;53.00;94639.44;5023217;28;20532;-73
2022/05/02 08:38:27;;;;;;;10.60;7.60;;;;;;;16.74;51.81;94644.22;5022737;28;20659;-72
2022/05/02 08:41:25;;;;;;;10.20;7.43;;;;;;;16.82;51.22;94643.75;5020694;28;20195;-73
2022/05/02 08:44:25;;;;;;;10.17;7.80;;;;;;;16.82;51.58;94641.13;5018433;28;20199;-82
2022/05/02 08:47:22;;;;;;;18.57;8.90;;;;;;;16.89;50.27;94636.44;5026191;28;20206;-77
2022/05/02 08:50:19;;;;;;;11.87;8.30;;;;;;;16.88;50.13;94634.06;4983195;28;20662;-83
2022/05/02 08:53:12;;;;;;;12.40;9.47;;;;;;;16.89;48.50;94635.63;5025280;28;20329;-77
2022/05/02 08:55:56;;;;;;;24.23;8.80;;;;;;;16.48;49.01;94630.16;5020217;28;20203;-80
2022/05/02 08:58:50;;;;;;;16.53;9.30;;;;;;;16.26;50.82;94621.66;5023120;28;20195;-77
2022/05/02 09:02:00;;;;;;;12.80;8.50;;;;;;;16.30;50.05;94614.09;5018979;28;20676;-74
2022/05/02 09:05:09;;;;;;;8.97;7.07;;;;;;;16.24;47.77;94621.13;5013032;28;20195;-74
2022/05/02 09:08:08;;;;;;;27.30;9.20;;;;;;;16.13;50.00;94622.09;5019928;28;20195;-77
2022/05/02 09:10:58;;;;;;;12.37;8.20;;;;;;;16.39;50.15;94617.81;5019546;28;20278;-75
2022/05/02 09:13:49;;;;;;;8.20;6.77;;;;;;;16.50;48.89;94606.31;5021273;28;20572;-76
2022/05/02 09:16:47;;;;;;;9.20;6.60;;;;;;;16.70;47.77;94597.78;5021425;28;20899;-77
2022/05/02 09:19:52;;;;;;;13.80;7.60;;;;;;;16.95;48.05;94622.28;5020897;28;20191;-75
2022/05/02 09:22:54;;;;;;;15.43;7.53;;;;;;;16.94;47.65;94609.41;5022854;28;20568;-75
2022/05/02 09:25:36;;;;;;;14.33;7.90;;;;;;;17.25;47.69;94602.38;5017140;28;20717;-75
2022/05/02 09:28:12;;;;;;;9.90;7.20;;;;;;;17.49;45.43;94585.06;5022162;28;20645;-75
2022/05/02 09:31:17;;;;;;;8.23;6.67;;;;;;;17.68;44.67;94594.06;5022636;28;20207;-75
2022/05/02 09:33:50;;;;;;;11.67;6.17;;;;;;;17.33;43.48;94600.03;5005724;28;20226;-75
2022/05/02 09:36:29;;;;;;;6.70;5.97;;;;;;;17.13;44.48;94591.34;5022814;28;20202;-75
2022/05/02 09:39:04;;;;;;;9.30;6.50;;;;;;;17.32;45.02;94587.16;5020913;28;20202;-75
2022/05/02 09:42:04;;;;;;;12.33;5.60;;;;;;;17.65;42.97;94585.91;5021408;28;20606;-76
2022/05/02 09:51:03;;;;;;;6.97;5.13;;;;;;;18.22;40.21;94570.56;5021568;28;20705;-75
2022/05/02 09:53:43;;;;;;;7.63;5.00;;;;;;;18.48;39.65;94568.66;5021334;28;20705;-76
2022/05/02 09:59:08;;;;;;;11.75;4.93;;;;;;;18.97;38.91;94556.34;5019895;28;20685;-76
2022/05/02 10:01:36;;;;;;;9.65;4.80;;;;;;;19.13;37.84;94557.81;5020411;28;20214;-76
2022/05/02 10:04:34;;;;;;;8.77;4.90;;;;;;;19.31;36.90;94563.53;5022371;28;20202;-75
2022/05/02 10:07:07;;;;;;;5.55;4.40;;;;;;;19.30;36.74;94554.06;5020668;28;20221;-75
2022/05/02 10:10:02;;;;;;;4.93;4.13;;;;;;;19.32;37.58;94563.25;5021539;28;20277;-75
2022/05/02 10:12:41;;;;;;;7.40;4.55;;;;;;;19.25;37.53;94546.94;5019708;28;20277;-75
2022/05/02 10:15:27;;;;;;;5.30;4.80;;;;;;;19.23;37.45;94557.78;5021905;28;20628;-74
2022/05/02 10:18:05;;;;;;;7.30;4.65;;;;;;;18.99;37.75;94553.47;5017710;28;20648;-74
2022/05/02 10:20:44;;;;;;;8.23;5.07;;;;;;;18.93;37.69;94552.69;5019320;28;20201;-74
2022/05/02 10:23:30;;;;;;;7.18;5.70;;;;;;;18.84;36.92;94556.97;5019764;28;20207;-74
2022/05/02 10:26:06;;;;;;;9.77;6.10;;;;;;;18.76;37.54;94560.13;5018174;28;20230;-74
2022/05/02 10:29:05;;;;;;;10.73;7.78;;;;;;;18.57;38.47;94554.72;5017659;28;20210;-76
2022/05/02 10:31:36;;;;;;;7.35;5.10;;;;;;;18.65;37.64;94558.59;5019510;28;20202;-74
2022/05/02 10:34:04;;;;;;;8.73;5.50;;;;;;;18.45;37.63;94541.03;5019067;28;20304;-74
2022/05/02 10:36:38;;;;;;;5.75;5.25;;;;;;;18.61;37.46;94542.56;5016527;28;20202;-74
2022/05/02 10:39:16;;;;;;;22.35;5.63;;;;;;;18.66;37.27;94545.19;5021347;28;20194;-74
2022/05/02 10:41:48;;;;;;;7.85;4.70;;;;;;;18.87;37.04;94550.34;5021435;28;20210;-75
2022/05/02 10:44:17;;;;;;;6.18;4.93;;;;;;;19.09;36.84;94548.91;5020534;28;20621;-75
2022/05/02 10:46:47;;;;;;;10.43;4.63;;;;;;;19.14;36.34;94542.81;5018681;28;20203;-75
2022/05/02 10:49:23;;;;;;;14.77;5.20;;;;;;;19.48;36.46;94545.53;5018079;28;21114;-75
2022/05/02 10:52:01;;;;;;;12.30;4.57;;;;;;;19.72;35.51;94544.50;5020635;28;20257;-75
2022/05/02 10:54:46;;;;;;;6.03;3.85;;;;;;;19.89;35.05;94540.66;5021394;28;20199;-75
2022/05/02 10:57:21;;;;;;;6.07;3.80;;;;;;;20.17;34.60;94538.00;5021778;28;20550;-75
2022/05/02 10:59:52;;;;;;;8.30;3.95;;;;;;;20.23;34.51;94525.56;5024062;28;20624;-75
2022/05/02 11:02:51;;;;;;;4.78;4.22;;;;;;;20.40;34.27;94528.56;5018396;28;20710;-76
2022/05/02 11:05:24;;;;;;;10.07;4.07;;;;;;;20.35;35.20;94531.25;5018372;28;20194;-73
2022/05/02 11:07:55;;;;;;;7.63;4.43;;;;;;;20.56;34.65;94527.31;5018338;28;20210;-73
2022/05/02 11:10:26;;;;;;;3.85;3.38;;;;;;;20.51;33.42;94526.59;5019933;28;20195;-73
2022/05/02 11:13:05;;;;;;;11.15;4.57;;;;;;;20.40;34.00;94525.13;5023877;28;20582;-75
2022/05/02 11:15:39;;;;;;;9.55;4.55;;;;;;;20.17;33.99;94522.16;5017909;28;20206;-75
2022/05/02 11:20:41;;;;;;;5.78;3.47;;;;;;;20.30;33.96;94524.19;5019628;28;20196;-75
2022/05/02 11:21:04;;;;;;;6.75;3.83;;;;;;;20.43;33.83;94528.00;5019954;28;20211;-75
2022/05/02 11:24:05;;;;;;;6.55;3.88;;;;;;;20.60;33.62;94523.03;5017721;28;20246;-75
2022/05/02 11:26:43;;;;;;;7.00;3.65;;;;;;;20.53;34.48;94527.88;5017365;28;20206;-74
2022/05/02 11:29:20;;;;;;;9.07;3.58;;;;;;;20.38;34.95;94518.28;5019189;28;20243;-75
2022/05/02 11:31:54;;;;;;;5.70;4.05;;;;;;;20.39;35.76;94524.34;5020820;28;20199;-75
2022/05/02 11:34:33;;;;;;;9.98;4.53;;;;;;;20.30;35.84;94510.19;5020714;28;20214;-75
2022/05/02 11:37:01;;;;;;;7.82;4.32;;;;;;;20.28;35.92;94523.69;5016672;28;20218;-74
2022/05/02 11:39:40;;;;;;;6.43;3.92;;;;;;;20.14;36.59;94535.16;5019748;28;20259;-74
2022/05/02 11:42:14;;;;;;;8.27;4.50;;;;;;;20.07;36.57;94529.41;5019084;28;20615;-75
2022/05/02 11:44:52;;;;;;;11.85;3.97;;;;;;;19.95;36.73;94534.28;5021094;28;20229;-74
2022/05/02 11:47:33;;;;;;;8.15;4.50;;;;;;;19.86;37.49;94523.53;5018355;28;20207;-75
2022/05/02 11:50:05;;;;;;;8.32;4.22;;;;;;;19.74;37.92;94518.63;5018142;28;20665;-75
2022/05/02 11:52:35;;;;;;;19.23;4.65;;;;;;;19.75;38.20;94522.06;5019064;28;20195;-76
2022/05/02 11:55:03;;;;;;;6.00;4.55;;;;;;;19.50;38.40;94517.81;5019848;28;20325;-76
2022/05/02 11:57:36;;;;;;;6.93;4.43;;;;;;;19.34;38.81;94521.59;5019934;28;20283;-75
2022/05/02 12:00:11;;;;;;;10.35;4.15;;;;;;;19.20;38.22;94521.44;5017652;28;20572;-76
2022/05/02 12:02:51;;;;;;;9.55;4.85;;;;;;;18.87;38.66;94516.91;5019107;28;20647;-74
2022/05/02 12:05:31;;;;;;;5.32;4.00;;;;;;;18.74;38.69;94512.22;5019328;28;20202;-75
2022/05/02 12:07:59;;;;;;;8.25;4.40;;;;;;;18.65;38.94;94512.00;5018180;28;20270;-75
2022/05/02 12:10:34;;;;;;;7.43;3.95;;;;;;;18.69;38.26;94513.06;5019147;28;20206;-74
2022/05/02 12:13:01;;;;;;;7.55;3.70;;;;;;;18.61;38.55;94515.47;5021756;28;20272;-74
2022/05/02 12:15:29;;;;;;;6.28;3.88;;;;;;;18.57;38.83;94517.84;5018380;28;20573;-74
2022/05/02 12:17:59;;;;;;;12.02;4.80;;;;;;;18.59;39.34;94501.78;5018798;28;20190;-73
2022/05/02 12:20:30;;;;;;;15.80;4.97;;;;;;;18.44;39.65;94502.59;5019923;28;20577;-74
2022/05/02 12:23:01;;;;;;;13.90;4.53;;;;;;;18.37;38.78;94511.84;5020405;28;20561;-74
2022/05/02 12:25:28;;;;;;;7.45;4.15;;;;;;;18.10;39.60;94505.09;5021905;28;20333;-74
2022/05/02 12:27:57;;;;;;;15.32;4.68;;;;;;;17.94;40.29;94513.31;5025421;28;20202;-75
2022/05/02 12:30:26;;;;;;;18.35;4.40;;;;;;;17.86;38.40;94503.34;5024631;28;20719;-75
2022/05/02 12:32:59;;;;;;;9.35;3.72;;;;;;;17.69;38.57;94503.59;5021347;28;20227;-74
2022/05/02 12:35:34;;;;;;;13.10;4.03;;;;;;;17.66;39.18;94504.16;5025375;28;20203;-77